Terminal Aerodrome Forecast
Issued by NWS

Home | Current Version | Previous Version | Graphics & Text | Print | Product List | Glossary On
Versions: 1 2 3 4 5 6 7 8 9 10 11 12 13 14 15 16 17 18 19 20 21 22 23 24 25 26 27 28 29 30 31 32 33 34 35 36 37 38 39
000
FTUS43 KGRB 061621 AAB
TAFRHI
TAF AMD
KRHI 061621Z 0616/0712 18008KT P6SM -SHRA SCT005 OVC060
      TEMPO 0616/0618 2SM -SHRA BR BKN005
     FM061800 14006KT P6SM SCT012 OVC025
      TEMPO 0618/0622 1SM +TSRA OVC012CB
     FM062200 VRB03KT 5SM SHRA BR SCT011 BKN025
     FM070100 35008KT 6SM -SHRA BKN011 OVC020
     FM070400 36010KT P6SM SCT014 OVC030=

USA.gov is the U.S. government's official web portal to all federal, state and local government web resources and services.